sensor_id;sensor_type;location;lat;lon;timestamp;temperature;humidity
52245;DHT22;55759;51.586;-1.758;2023-05-07T00:00:32;12.80;92.80
52245;DHT22;55759;51.586;-1.758;2023-05-07T00:02:59;12.80;92.60
52245;DHT22;55759;51.586;-1.758;2023-05-07T00:05:25;12.80;92.50
52245;DHT22;55759;51.586;-1.758;2023-05-07T00:07:51;12.80;92.50
52245;DHT22;55759;51.586;-1.758;2023-05-07T00:10:18;12.90;92.40
52245;DHT22;55759;51.586;-1.758;2023-05-07T00:12:43;12.80;92.40
52245;DHT22;55759;51.586;-1.758;2023-05-07T00:15:09;12.90;92.30
52245;DHT22;55759;51.586;-1.758;2023-05-07T00:17:34;12.90;92.30
52245;DHT22;55759;51.586;-1.758;2023-05-07T00:20:00;12.80;92.10
52245;DHT22;55759;51.586;-1.758;2023-05-07T00:22:27;12.80;92.10
52245;DHT22;55759;51.586;-1.758;2023-05-07T00:24:55;12.80;92.00
52245;DHT22;55759;51.586;-1.758;2023-05-07T00:27:21;12.70;91.90
52245;DHT22;55759;51.586;-1.758;2023-05-07T00:29:47;12.70;91.80
52245;DHT22;55759;51.586;-1.758;2023-05-07T00:32:12;12.70;91.70
52245;DHT22;55759;51.586;-1.758;2023-05-07T00:34:38;12.70;91.50
52245;DHT22;55759;51.586;-1.758;2023-05-07T00:37:05;12.70;91.60
52245;DHT22;55759;51.586;-1.758;2023-05-07T00:39:32;12.70;91.50
52245;DHT22;55759;51.586;-1.758;2023-05-07T00:41:58;12.70;91.40
52245;DHT22;55759;51.586;-1.758;2023-05-07T00:44:24;12.60;91.20
52245;DHT22;55759;51.586;-1.758;2023-05-07T00:46:50;12.60;91.30
52245;DHT22;55759;51.586;-1.758;2023-05-07T00:49:16;12.60;91.20
52245;DHT22;55759;51.586;-1.758;2023-05-07T00:51:41;12.60;91.40
52245;DHT22;55759;51.586;-1.758;2023-05-07T00:54:07;12.60;91.30
52245;DHT22;55759;51.586;-1.758;2023-05-07T00:56:33;12.60;91.40
52245;DHT22;55759;51.586;-1.758;2023-05-07T00:59:00;12.50;91.40
52245;DHT22;55759;51.586;-1.758;2023-05-07T01:01:26;12.60;91.50
52245;DHT22;55759;51.586;-1.758;2023-05-07T01:03:52;12.60;91.50
52245;DHT22;55759;51.586;-1.758;2023-05-07T01:06:18;12.60;91.60
52245;DHT22;55759;51.586;-1.758;2023-05-07T01:08:43;12.60;91.60
52245;DHT22;55759;51.586;-1.758;2023-05-07T01:11:10;12.60;91.70
52245;DHT22;55759;51.586;-1.758;2023-05-07T01:13:36;12.60;91.50
52245;DHT22;55759;51.586;-1.758;2023-05-07T01:16:02;12.60;91.50
52245;DHT22;55759;51.586;-1.758;2023-05-07T01:18:28;12.60;91.30
52245;DHT22;55759;51.586;-1.758;2023-05-07T01:20:56;12.60;91.10
52245;DHT22;55759;51.586;-1.758;2023-05-07T01:23:23;12.50;91.00
52245;DHT22;55759;51.586;-1.758;2023-05-07T01:25:52;12.50;91.10
52245;DHT22;55759;51.586;-1.758;2023-05-07T01:28:18;12.40;91.20
52245;DHT22;55759;51.586;-1.758;2023-05-07T01:30:44;12.40;91.50
52245;DHT22;55759;51.586;-1.758;2023-05-07T01:33:13;12.40;91.50
52245;DHT22;55759;51.586;-1.758;2023-05-07T01:35:40;12.50;91.70
52245;DHT22;55759;51.586;-1.758;2023-05-07T01:38:07;12.40;91.70
52245;DHT22;55759;51.586;-1.758;2023-05-07T01:40:33;12.40;91.70
52245;DHT22;55759;51.586;-1.758;2023-05-07T01:43:00;12.40;91.60
52245;DHT22;55759;51.586;-1.758;2023-05-07T01:45:26;12.40;91.70
52245;DHT22;55759;51.586;-1.758;2023-05-07T01:47:52;12.40;91.70
52245;DHT22;55759;51.586;-1.758;2023-05-07T01:50:18;12.40;91.80
52245;DHT22;55759;51.586;-1.758;2023-05-07T01:52:44;12.40;91.90
52245;DHT22;55759;51.586;-1.758;2023-05-07T01:55:10;12.40;91.80
52245;DHT22;55759;51.586;-1.758;2023-05-07T01:57:36;12.30;91.80
52245;DHT22;55759;51.586;-1.758;2023-05-07T02:00:02;12.30;91.90
52245;DHT22;55759;51.586;-1.758;2023-05-07T02:02:31;12.30;91.70
52245;DHT22;55759;51.586;-1.758;2023-05-07T02:04:57;12.30;91.80
52245;DHT22;55759;51.586;-1.758;2023-05-07T02:07:22;12.20;91.90
52245;DHT22;55759;51.586;-1.758;2023-05-07T02:09:48;12.20;91.80
52245;DHT22;55759;51.586;-1.758;2023-05-07T02:12:13;12.20;92.00
52245;DHT22;55759;51.586;-1.758;2023-05-07T02:14:39;12.20;92.30
52245;DHT22;55759;51.586;-1.758;2023-05-07T02:17:05;12.20;92.40
52245;DHT22;55759;51.586;-1.758;2023-05-07T02:19:31;12.20;92.40
52245;DHT22;55759;51.586;-1.758;2023-05-07T02:21:56;12.20;92.60
52245;DHT22;55759;51.586;-1.758;2023-05-07T02:24:22;12.20;92.60
52245;DHT22;55759;51.586;-1.758;2023-05-07T02:26:55;12.20;92.50
52245;DHT22;55759;51.586;-1.758;2023-05-07T02:29:21;12.20;92.40
52245;DHT22;55759;51.586;-1.758;2023-05-07T02:31:46;12.20;92.50
52245;DHT22;55759;51.586;-1.758;2023-05-07T02:34:18;12.20;92.40
52245;DHT22;55759;51.586;-1.758;2023-05-07T02:36:44;12.30;92.30
52245;DHT22;55759;51.586;-1.758;2023-05-07T02:39:10;12.20;92.30
52245;DHT22;55759;51.586;-1.758;2023-05-07T02:41:36;12.20;92.30
52245;DHT22;55759;51.586;-1.758;2023-05-07T02:44:01;12.20;92.20
52245;DHT22;55759;51.586;-1.758;2023-05-07T02:46:27;12.20;92.30
52245;DHT22;55759;51.586;-1.758;2023-05-07T02:48:53;12.20;92.20
52245;DHT22;55759;51.586;-1.758;2023-05-07T02:51:19;12.20;92.40
52245;DHT22;55759;51.586;-1.758;2023-05-07T02:53:45;12.20;92.60
52245;DHT22;55759;51.586;-1.758;2023-05-07T02:56:12;12.20;92.60
52245;DHT22;55759;51.586;-1.758;2023-05-07T02:58:38;12.20;92.60
52245;DHT22;55759;51.586;-1.758;2023-05-07T03:01:07;12.20;92.50
52245;DHT22;55759;51.586;-1.758;2023-05-07T03:03:33;12.20;92.50
52245;DHT22;55759;51.586;-1.758;2023-05-07T03:05:59;12.10;92.60
52245;DHT22;55759;51.586;-1.758;2023-05-07T03:08:25;12.20;92.70
52245;DHT22;55759;51.586;-1.758;2023-05-07T03:10:50;12.20;92.60
52245;DHT22;55759;51.586;-1.758;2023-05-07T03:13:16;12.20;92.60
52245;DHT22;55759;51.586;-1.758;2023-05-07T03:24:54;12.20;92.80
52245;DHT22;55759;51.586;-1.758;2023-05-07T03:27:20;12.20;92.70
52245;DHT22;55759;51.586;-1.758;2023-05-07T03:32:46;12.20;92.80
52245;DHT22;55759;51.586;-1.758;2023-05-07T03:35:20;12.20;92.90
52245;DHT22;55759;51.586;-1.758;2023-05-07T03:37:57;12.20;92.80
52245;DHT22;55759;51.586;-1.758;2023-05-07T03:49:38;12.20;92.90
52245;DHT22;55759;51.586;-1.758;2023-05-07T03:52:17;12.10;92.80
52245;DHT22;55759;51.586;-1.758;2023-05-07T04:04:14;12.20;92.70
52245;DHT22;55759;51.586;-1.758;2023-05-07T04:10:04;12.10;92.60
52245;DHT22;55759;51.586;-1.758;2023-05-07T04:15:23;12.20;92.70
52245;DHT22;55759;51.586;-1.758;2023-05-07T04:27:27;12.20;92.70
52245;DHT22;55759;51.586;-1.758;2023-05-07T04:39:02;12.20;92.70
52245;DHT22;55759;51.586;-1.758;2023-05-07T05:00:30;12.40;92.60
52245;DHT22;55759;51.586;-1.758;2023-05-07T05:03:10;12.30;92.50
52245;DHT22;55759;51.586;-1.758;2023-05-07T05:05:48;12.40;92.40
52245;DHT22;55759;51.586;-1.758;2023-05-07T05:08:25;12.30;92.40
52245;DHT22;55759;51.586;-1.758;2023-05-07T05:10:51;12.40;92.40
52245;DHT22;55759;51.586;-1.758;2023-05-07T05:13:17;12.40;92.20
52245;DHT22;55759;51.586;-1.758;2023-05-07T05:15:43;12.50;92.10
52245;DHT22;55759;51.586;-1.758;2023-05-07T05:18:08;12.50;91.90
52245;DHT22;55759;51.586;-1.758;2023-05-07T05:20:34;12.60;91.70
52245;DHT22;55759;51.586;-1.758;2023-05-07T05:26:16;12.60;91.90
52245;DHT22;55759;51.586;-1.758;2023-05-07T05:28:42;12.60;92.00
52245;DHT22;55759;51.586;-1.758;2023-05-07T05:31:07;12.60;92.00
52245;DHT22;55759;51.586;-1.758;2023-05-07T05:33:33;12.70;92.10
52245;DHT22;55759;51.586;-1.758;2023-05-07T05:35:59;12.70;92.00
52245;DHT22;55759;51.586;-1.758;2023-05-07T05:38:24;12.70;91.60
52245;DHT22;55759;51.586;-1.758;2023-05-07T05:40:51;12.80;91.80
52245;DHT22;55759;51.586;-1.758;2023-05-07T05:43:16;12.90;91.80
52245;DHT22;55759;51.586;-1.758;2023-05-07T05:45:42;13.00;91.70
52245;DHT22;55759;51.586;-1.758;2023-05-07T05:48:07;13.10;91.60
52245;DHT22;55759;51.586;-1.758;2023-05-07T05:50:34;13.10;91.10
52245;DHT22;55759;51.586;-1.758;2023-05-07T05:53:01;13.20;91.00
52245;DHT22;55759;51.586;-1.758;2023-05-07T05:55:26;13.20;91.00
52245;DHT22;55759;51.586;-1.758;2023-05-07T05:57:52;13.30;90.60
52245;DHT22;55759;51.586;-1.758;2023-05-07T06:00:17;13.30;90.80
52245;DHT22;55759;51.586;-1.758;2023-05-07T06:02:43;13.40;90.40
52245;DHT22;55759;51.586;-1.758;2023-05-07T06:05:09;13.50;89.90
52245;DHT22;55759;51.586;-1.758;2023-05-07T06:07:35;13.60;89.70
52245;DHT22;55759;51.586;-1.758;2023-05-07T06:10:00;13.60;89.20
52245;DHT22;55759;51.586;-1.758;2023-05-07T06:12:26;13.60;88.90
52245;DHT22;55759;51.586;-1.758;2023-05-07T06:14:52;13.60;88.80
52245;DHT22;55759;51.586;-1.758;2023-05-07T06:17:17;13.60;88.70
52245;DHT22;55759;51.586;-1.758;2023-05-07T06:19:43;13.60;88.20
52245;DHT22;55759;51.586;-1.758;2023-05-07T06:22:08;13.60;88.40
52245;DHT22;55759;51.586;-1.758;2023-05-07T06:24:34;13.60;88.40
52245;DHT22;55759;51.586;-1.758;2023-05-07T06:27:00;13.60;88.60
52245;DHT22;55759;51.586;-1.758;2023-05-07T06:29:25;13.60;88.10
52245;DHT22;55759;51.586;-1.758;2023-05-07T06:31:52;13.60;87.90
52245;DHT22;55759;51.586;-1.758;2023-05-07T06:34:17;13.60;87.80
52245;DHT22;55759;51.586;-1.758;2023-05-07T06:36:43;13.60;87.80
52245;DHT22;55759;51.586;-1.758;2023-05-07T06:39:09;13.70;87.60
52245;DHT22;55759;51.586;-1.758;2023-05-07T06:41:34;13.70;87.20
52245;DHT22;55759;51.586;-1.758;2023-05-07T06:44:01;13.70;87.30
52245;DHT22;55759;51.586;-1.758;2023-05-07T06:46:27;13.80;87.30
52245;DHT22;55759;51.586;-1.758;2023-05-07T06:48:53;13.90;86.60
52245;DHT22;55759;51.586;-1.758;2023-05-07T06:51:19;13.90;86.50
52245;DHT22;55759;51.586;-1.758;2023-05-07T06:53:44;13.90;85.90
52245;DHT22;55759;51.586;-1.758;2023-05-07T06:56:10;13.90;85.70
52245;DHT22;55759;51.586;-1.758;2023-05-07T06:58:35;13.90;85.90
52245;DHT22;55759;51.586;-1.758;2023-05-07T07:01:01;14.00;86.10
52245;DHT22;55759;51.586;-1.758;2023-05-07T07:03:27;14.00;85.40
52245;DHT22;55759;51.586;-1.758;2023-05-07T07:05:53;14.00;85.50
52245;DHT22;55759;51.586;-1.758;2023-05-07T07:08:18;14.10;85.60
52245;DHT22;55759;51.586;-1.758;2023-05-07T07:10:46;14.20;85.60
52245;DHT22;55759;51.586;-1.758;2023-05-07T07:13:15;14.30;85.20
52245;DHT22;55759;51.586;-1.758;2023-05-07T07:15:41;14.40;85.00
52245;DHT22;55759;51.586;-1.758;2023-05-07T07:18:06;14.50;84.50
52245;DHT22;55759;51.586;-1.758;2023-05-07T07:20:32;14.50;84.20
52245;DHT22;55759;51.586;-1.758;2023-05-07T07:22:58;14.50;83.60
52245;DHT22;55759;51.586;-1.758;2023-05-07T07:25:23;14.40;84.10
52245;DHT22;55759;51.586;-1.758;2023-05-07T07:27:49;14.40;84.20
52245;DHT22;55759;51.586;-1.758;2023-05-07T07:30:15;14.40;84.40
52245;DHT22;55759;51.586;-1.758;2023-05-07T07:32:40;14.50;84.60
52245;DHT22;55759;51.586;-1.758;2023-05-07T07:35:06;14.50;83.90
52245;DHT22;55759;51.586;-1.758;2023-05-07T07:37:32;14.50;83.60
52245;DHT22;55759;51.586;-1.758;2023-05-07T07:39:57;14.50;83.80
52245;DHT22;55759;51.586;-1.758;2023-05-07T07:42:23;14.40;83.40
52245;DHT22;55759;51.586;-1.758;2023-05-07T07:44:48;14.40;83.10
52245;DHT22;55759;51.586;-1.758;2023-05-07T07:47:14;14.40;83.40
52245;DHT22;55759;51.586;-1.758;2023-05-07T07:49:40;14.30;83.30
52245;DHT22;55759;51.586;-1.758;2023-05-07T07:52:05;14.30;83.90
52245;DHT22;55759;51.586;-1.758;2023-05-07T07:54:31;14.30;84.10
52245;DHT22;55759;51.586;-1.758;2023-05-07T07:56:56;14.40;84.10
52245;DHT22;55759;51.586;-1.758;2023-05-07T07:59:22;14.40;83.70
52245;DHT22;55759;51.586;-1.758;2023-05-07T08:01:48;14.50;84.10
52245;DHT22;55759;51.586;-1.758;2023-05-07T08:04:15;14.70;83.60
52245;DHT22;55759;51.586;-1.758;2023-05-07T08:06:41;14.80;82.60
52245;DHT22;55759;51.586;-1.758;2023-05-07T08:09:07;14.90;82.90
52245;DHT22;55759;51.586;-1.758;2023-05-07T08:11:33;14.90;82.70
52245;DHT22;55759;51.586;-1.758;2023-05-07T08:13:59;14.90;82.70
52245;DHT22;55759;51.586;-1.758;2023-05-07T08:16:25;15.00;82.30
52245;DHT22;55759;51.586;-1.758;2023-05-07T08:18:51;15.00;81.80
52245;DHT22;55759;51.586;-1.758;2023-05-07T08:21:16;15.10;82.00
52245;DHT22;55759;51.586;-1.758;2023-05-07T08:23:42;15.20;81.50
52245;DHT22;55759;51.586;-1.758;2023-05-07T08:26:08;15.30;81.80
52245;DHT22;55759;51.586;-1.758;2023-05-07T08:28:34;15.50;80.90
52245;DHT22;55759;51.586;-1.758;2023-05-07T08:30:59;15.70;80.90
52245;DHT22;55759;51.586;-1.758;2023-05-07T08:33:26;16.00;80.40
52245;DHT22;55759;51.586;-1.758;2023-05-07T08:35:52;16.40;79.60
52245;DHT22;55759;51.586;-1.758;2023-05-07T08:38:17;16.60;78.10
52245;DHT22;55759;51.586;-1.758;2023-05-07T08:40:43;16.80;76.90
52245;DHT22;55759;51.586;-1.758;2023-05-07T08:43:08;16.90;76.60
52245;DHT22;55759;51.586;-1.758;2023-05-07T08:45:37;16.90;77.20
52245;DHT22;55759;51.586;-1.758;2023-05-07T08:48:05;16.90;76.00
52245;DHT22;55759;51.586;-1.758;2023-05-07T08:50:35;16.70;75.90
52245;DHT22;55759;51.586;-1.758;2023-05-07T08:53:02;16.60;76.40
52245;DHT22;55759;51.586;-1.758;2023-05-07T08:55:28;16.50;77.40
52245;DHT22;55759;51.586;-1.758;2023-05-07T08:57:55;16.40;76.50
52245;DHT22;55759;51.586;-1.758;2023-05-07T09:00:20;16.40;77.80
52245;DHT22;55759;51.586;-1.758;2023-05-07T09:02:53;16.40;77.40
52245;DHT22;55759;51.586;-1.758;2023-05-07T09:05:19;16.60;78.00
52245;DHT22;55759;51.586;-1.758;2023-05-07T09:07:45;16.90;77.90
52245;DHT22;55759;51.586;-1.758;2023-05-07T09:10:11;17.20;76.80
52245;DHT22;55759;51.586;-1.758;2023-05-07T09:12:46;17.60;75.00
52245;DHT22;55759;51.586;-1.758;2023-05-07T09:15:12;17.70;73.30
52245;DHT22;55759;51.586;-1.758;2023-05-07T09:17:37;17.70;72.80
52245;DHT22;55759;51.586;-1.758;2023-05-07T09:20:06;17.70;73.70
52245;DHT22;55759;51.586;-1.758;2023-05-07T09:22:32;17.70;73.80
52245;DHT22;55759;51.586;-1.758;2023-05-07T09:24:58;17.60;73.40
52245;DHT22;55759;51.586;-1.758;2023-05-07T09:27:24;17.60;73.00
52245;DHT22;55759;51.586;-1.758;2023-05-07T09:29:51;17.60;74.40
52245;DHT22;55759;51.586;-1.758;2023-05-07T09:32:16;17.70;73.60
52245;DHT22;55759;51.586;-1.758;2023-05-07T09:34:42;17.60;72.40
52245;DHT22;55759;51.586;-1.758;2023-05-07T09:37:08;17.60;73.70
52245;DHT22;55759;51.586;-1.758;2023-05-07T09:39:43;17.70;74.30
52245;DHT22;55759;51.586;-1.758;2023-05-07T09:42:10;17.80;73.90
52245;DHT22;55759;51.586;-1.758;2023-05-07T09:44:37;17.80;73.50
52245;DHT22;55759;51.586;-1.758;2023-05-07T09:47:04;17.90;72.70
52245;DHT22;55759;51.586;-1.758;2023-05-07T09:49:30;18.10;72.40
52245;DHT22;55759;51.586;-1.758;2023-05-07T09:51:56;18.20;72.40
52245;DHT22;55759;51.586;-1.758;2023-05-07T09:54:24;18.30;71.80
52245;DHT22;55759;51.586;-1.758;2023-05-07T09:56:50;18.60;71.70
52245;DHT22;55759;51.586;-1.758;2023-05-07T09:59:17;18.70;68.80
52245;DHT22;55759;51.586;-1.758;2023-05-07T10:01:43;18.60;70.00
52245;DHT22;55759;51.586;-1.758;2023-05-07T10:04:09;18.70;68.80
52245;DHT22;55759;51.586;-1.758;2023-05-07T10:06:35;18.70;68.60
52245;DHT22;55759;51.586;-1.758;2023-05-07T10:09:01;18.70;69.10
52245;DHT22;55759;51.586;-1.758;2023-05-07T10:11:27;18.70;68.30
52245;DHT22;55759;51.586;-1.758;2023-05-07T10:13:53;18.90;69.00
52245;DHT22;55759;51.586;-1.758;2023-05-07T10:16:19;19.10;68.30
52245;DHT22;55759;51.586;-1.758;2023-05-07T10:18:45;19.10;67.20
52245;DHT22;55759;51.586;-1.758;2023-05-07T10:21:12;19.10;68.10
52245;DHT22;55759;51.586;-1.758;2023-05-07T10:23:45;19.10;67.50
52245;DHT22;55759;51.586;-1.758;2023-05-07T10:26:11;19.30;66.70
52245;DHT22;55759;51.586;-1.758;2023-05-07T10:34:07;19.40;65.40
52245;DHT22;55759;51.586;-1.758;2023-05-07T10:36:34;19.40;65.40
52245;DHT22;55759;51.586;-1.758;2023-05-07T10:39:01;19.60;64.80
52245;DHT22;55759;51.586;-1.758;2023-05-07T10:41:26;19.80;65.20
52245;DHT22;55759;51.586;-1.758;2023-05-07T10:43:52;20.00;64.20
52245;DHT22;55759;51.586;-1.758;2023-05-07T10:46:18;20.10;62.10
52245;DHT22;55759;51.586;-1.758;2023-05-07T10:51:26;20.40;61.90
52245;DHT22;55759;51.586;-1.758;2023-05-07T10:54:41;20.90;60.80
52245;DHT22;55759;51.586;-1.758;2023-05-07T10:56:48;21.90;59.10
52245;DHT22;55759;51.586;-1.758;2023-05-07T11:01:56;23.50;55.20
52245;DHT22;55759;51.586;-1.758;2023-05-07T11:04:32;23.50;54.90
52245;DHT22;55759;51.586;-1.758;2023-05-07T11:12:13;22.30;56.50
52245;DHT22;55759;51.586;-1.758;2023-05-07T11:17:10;21.60;58.00
52245;DHT22;55759;51.586;-1.758;2023-05-07T11:19:53;21.40;58.70
52245;DHT22;55759;51.586;-1.758;2023-05-07T11:25:00;21.10;59.50
52245;DHT22;55759;51.586;-1.758;2023-05-07T11:27:26;20.90;59.80
52245;DHT22;55759;51.586;-1.758;2023-05-07T11:29:52;20.80;59.30
52245;DHT22;55759;51.586;-1.758;2023-05-07T11:32:27;20.80;60.40
52245;DHT22;55759;51.586;-1.758;2023-05-07T11:34:54;20.70;60.40
52245;DHT22;55759;51.586;-1.758;2023-05-07T11:37:22;20.20;60.20
52245;DHT22;55759;51.586;-1.758;2023-05-07T11:39:49;19.80;61.30
52245;DHT22;55759;51.586;-1.758;2023-05-07T11:42:27;19.60;62.40
52245;DHT22;55759;51.586;-1.758;2023-05-07T11:44:53;19.50;62.70
52245;DHT22;55759;51.586;-1.758;2023-05-07T11:47:20;19.40;62.40
52245;DHT22;55759;51.586;-1.758;2023-05-07T11:49:48;19.40;63.00
52245;DHT22;55759;51.586;-1.758;2023-05-07T11:52:15;19.60;62.60
52245;DHT22;55759;51.586;-1.758;2023-05-07T11:54:40;19.80;62.70
52245;DHT22;55759;51.586;-1.758;2023-05-07T11:57:06;20.00;63.40
52245;DHT22;55759;51.586;-1.758;2023-05-07T11:59:41;20.10;60.80
52245;DHT22;55759;51.586;-1.758;2023-05-07T12:02:09;20.20;62.30
52245;DHT22;55759;51.586;-1.758;2023-05-07T12:04:35;20.50;61.10
52245;DHT22;55759;51.586;-1.758;2023-05-07T12:07:00;20.80;59.40
52245;DHT22;55759;51.586;-1.758;2023-05-07T12:09:26;21.10;58.90
52245;DHT22;55759;51.586;-1.758;2023-05-07T12:11:52;21.60;60.00
52245;DHT22;55759;51.586;-1.758;2023-05-07T12:14:18;22.00;57.00
52245;DHT22;55759;51.586;-1.758;2023-05-07T12:16:44;21.90;55.70
52245;DHT22;55759;51.586;-1.758;2023-05-07T12:19:10;21.80;57.20
52245;DHT22;55759;51.586;-1.758;2023-05-07T12:21:40;21.80;55.40
52245;DHT22;55759;51.586;-1.758;2023-05-07T12:24:08;21.60;55.50
52245;DHT22;55759;51.586;-1.758;2023-05-07T12:26:37;21.70;58.10
52245;DHT22;55759;51.586;-1.758;2023-05-07T12:29:18;22.50;54.80
52245;DHT22;55759;51.586;-1.758;2023-05-07T12:31:49;23.80;54.00
52245;DHT22;55759;51.586;-1.758;2023-05-07T12:34:15;26.50;48.30
52245;DHT22;55759;51.586;-1.758;2023-05-07T12:36:41;28.70;43.90
52245;DHT22;55759;51.586;-1.758;2023-05-07T12:39:07;31.50;40.60
52245;DHT22;55759;51.586;-1.758;2023-05-07T12:41:36;34.60;34.80
52245;DHT22;55759;51.586;-1.758;2023-05-07T12:44:17;36.30;32.10
52245;DHT22;55759;51.586;-1.758;2023-05-07T12:46:42;37.10;29.70
52245;DHT22;55759;51.586;-1.758;2023-05-07T12:49:08;38.10;29.30
52245;DHT22;55759;51.586;-1.758;2023-05-07T12:51:34;37.10;27.80
52245;DHT22;55759;51.586;-1.758;2023-05-07T12:54:00;34.80;30.10
52245;DHT22;55759;51.586;-1.758;2023-05-07T12:56:26;33.00;32.20
52245;DHT22;55759;51.586;-1.758;2023-05-07T12:58:51;31.20;34.50
52245;DHT22;55759;51.586;-1.758;2023-05-07T13:01:22;30.00;38.70
52245;DHT22;55759;51.586;-1.758;2023-05-07T13:04:00;29.40;38.80
52245;DHT22;55759;51.586;-1.758;2023-05-07T13:06:29;29.90;39.40
52245;DHT22;55759;51.586;-1.758;2023-05-07T13:08:55;30.90;38.50
52245;DHT22;55759;51.586;-1.758;2023-05-07T13:11:20;32.60;33.80
52245;DHT22;55759;51.586;-1.758;2023-05-07T13:13:48;33.40;37.00
52245;DHT22;55759;51.586;-1.758;2023-05-07T13:16:14;33.10;33.50
52245;DHT22;55759;51.586;-1.758;2023-05-07T13:18:40;32.20;36.10
52245;DHT22;55759;51.586;-1.758;2023-05-07T13:21:06;33.50;38.60
52245;DHT22;55759;51.586;-1.758;2023-05-07T13:23:31;35.70;34.30
52245;DHT22;55759;51.586;-1.758;2023-05-07T13:25:57;37.60;32.50
52245;DHT22;55759;51.586;-1.758;2023-05-07T13:28:23;38.90;28.90
52245;DHT22;55759;51.586;-1.758;2023-05-07T13:30:49;39.10;24.70
52245;DHT22;55759;51.586;-1.758;2023-05-07T13:33:17;39.10;30.50
52245;DHT22;55759;51.586;-1.758;2023-05-07T13:35:42;39.50;24.10
52245;DHT22;55759;51.586;-1.758;2023-05-07T13:38:08;39.60;27.70
52245;DHT22;55759;51.586;-1.758;2023-05-07T13:40:34;40.50;29.30
52245;DHT22;55759;51.586;-1.758;2023-05-07T13:42:59;41.60;23.50
52245;DHT22;55759;51.586;-1.758;2023-05-07T13:45:27;40.30;25.20
52245;DHT22;55759;51.586;-1.758;2023-05-07T13:47:54;39.20;25.70
52245;DHT22;55759;51.586;-1.758;2023-05-07T13:50:20;39.70;31.30
52245;DHT22;55759;51.586;-1.758;2023-05-07T13:52:45;41.00;26.10
52245;DHT22;55759;51.586;-1.758;2023-05-07T13:55:16;40.90;26.10
52245;DHT22;55759;51.586;-1.758;2023-05-07T13:57:42;39.40;27.60
52245;DHT22;55759;51.586;-1.758;2023-05-07T14:00:07;39.10;29.50
52245;DHT22;55759;51.586;-1.758;2023-05-07T14:02:33;38.90;27.80
52245;DHT22;55759;51.586;-1.758;2023-05-07T14:04:59;38.70;25.60
52245;DHT22;55759;51.586;-1.758;2023-05-07T14:07:25;38.20;30.20
52245;DHT22;55759;51.586;-1.758;2023-05-07T14:09:50;37.00;31.20
52245;DHT22;55759;51.586;-1.758;2023-05-07T14:12:16;35.50;32.70
52245;DHT22;55759;51.586;-1.758;2023-05-07T14:14:41;34.30;32.00
52245;DHT22;55759;51.586;-1.758;2023-05-07T14:17:07;33.30;34.70
52245;DHT22;55759;51.586;-1.758;2023-05-07T14:19:33;33.80;39.70
52245;DHT22;55759;51.586;-1.758;2023-05-07T14:21:59;35.50;32.50
52245;DHT22;55759;51.586;-1.758;2023-05-07T14:24:24;36.10;31.30
52245;DHT22;55759;51.586;-1.758;2023-05-07T14:26:50;36.60;34.00
52245;DHT22;55759;51.586;-1.758;2023-05-07T14:29:16;37.10;33.20
52245;DHT22;55759;51.586;-1.758;2023-05-07T14:31:44;35.80;29.90
52245;DHT22;55759;51.586;-1.758;2023-05-07T14:34:10;34.80;30.00
52245;DHT22;55759;51.586;-1.758;2023-05-07T14:36:35;34.10;34.80
52245;DHT22;55759;51.586;-1.758;2023-05-07T14:39:01;33.10;34.90
52245;DHT22;55759;51.586;-1.758;2023-05-07T14:41:27;31.90;36.40
52245;DHT22;55759;51.586;-1.758;2023-05-07T14:43:53;31.30;41.40
52245;DHT22;55759;51.586;-1.758;2023-05-07T14:46:18;33.20;32.10
52245;DHT22;55759;51.586;-1.758;2023-05-07T14:48:44;35.10;34.90
52245;DHT22;55759;51.586;-1.758;2023-05-07T14:51:10;36.30;29.20
52245;DHT22;55759;51.586;-1.758;2023-05-07T14:53:40;35.90;30.10
52245;DHT22;55759;51.586;-1.758;2023-05-07T14:56:06;37.00;31.40
52245;DHT22;55759;51.586;-1.758;2023-05-07T14:58:32;37.10;29.50
52245;DHT22;55759;51.586;-1.758;2023-05-07T15:00:58;36.60;31.00
52245;DHT22;55759;51.586;-1.758;2023-05-07T15:03:23;37.50;34.80
52245;DHT22;55759;51.586;-1.758;2023-05-07T15:05:50;38.30;24.10
52245;DHT22;55759;51.586;-1.758;2023-05-07T15:08:18;36.80;29.80
52245;DHT22;55759;51.586;-1.758;2023-05-07T15:10:44;34.80;32.80
52245;DHT22;55759;51.586;-1.758;2023-05-07T15:13:10;34.10;36.40
52245;DHT22;55759;51.586;-1.758;2023-05-07T15:15:35;35.40;32.40
52245;DHT22;55759;51.586;-1.758;2023-05-07T15:18:01;36.90;32.30
52245;DHT22;55759;51.586;-1.758;2023-05-07T15:20:27;37.50;27.40
52245;DHT22;55759;51.586;-1.758;2023-05-07T15:22:52;36.70;31.70
52245;DHT22;55759;51.586;-1.758;2023-05-07T15:25:18;37.00;26.40
52245;DHT22;55759;51.586;-1.758;2023-05-07T15:27:44;37.10;30.40
52245;DHT22;55759;51.586;-1.758;2023-05-07T15:30:09;37.40;32.10
52245;DHT22;55759;51.586;-1.758;2023-05-07T15:32:36;38.40;27.20
52245;DHT22;55759;51.586;-1.758;2023-05-07T15:35:02;39.40;28.80
52245;DHT22;55759;51.586;-1.758;2023-05-07T15:37:30;39.90;30.50
52245;DHT22;55759;51.586;-1.758;2023-05-07T15:39:55;40.30;28.30
52245;DHT22;55759;51.586;-1.758;2023-05-07T15:42:23;40.80;27.30
52245;DHT22;55759;51.586;-1.758;2023-05-07T15:44:51;41.10;22.20
52245;DHT22;55759;51.586;-1.758;2023-05-07T15:47:20;40.60;23.80
52245;DHT22;55759;51.586;-1.758;2023-05-07T15:49:46;40.90;26.90
52245;DHT22;55759;51.586;-1.758;2023-05-07T15:52:11;40.90;27.80
52245;DHT22;55759;51.586;-1.758;2023-05-07T15:54:41;41.10;25.70
52245;DHT22;55759;51.586;-1.758;2023-05-07T15:57:07;41.50;26.70
52245;DHT22;55759;51.586;-1.758;2023-05-07T15:59:36;41.00;28.50
52245;DHT22;55759;51.586;-1.758;2023-05-07T16:02:02;40.20;28.00
52245;DHT22;55759;51.586;-1.758;2023-05-07T16:04:30;39.80;27.70
52245;DHT22;55759;51.586;-1.758;2023-05-07T16:06:56;38.20;29.40
52245;DHT22;55759;51.586;-1.758;2023-05-07T16:12:15;33.40;36.30
52245;DHT22;55759;51.586;-1.758;2023-05-07T16:14:42;33.00;34.70
52245;DHT22;55759;51.586;-1.758;2023-05-07T16:17:07;33.40;33.40
52245;DHT22;55759;51.586;-1.758;2023-05-07T16:19:33;33.80;34.20
52245;DHT22;55759;51.586;-1.758;2023-05-07T16:21:59;34.60;36.60
52245;DHT22;55759;51.586;-1.758;2023-05-07T16:24:24;35.00;33.30
52245;DHT22;55759;51.586;-1.758;2023-05-07T16:26:50;34.00;35.30
52245;DHT22;55759;51.586;-1.758;2023-05-07T16:29:16;33.30;37.40
52245;DHT22;55759;51.586;-1.758;2023-05-07T16:31:41;34.20;36.80
52245;DHT22;55759;51.586;-1.758;2023-05-07T16:34:07;33.60;30.70
52245;DHT22;55759;51.586;-1.758;2023-05-07T16:36:38;33.20;36.70
52245;DHT22;55759;51.586;-1.758;2023-05-07T16:39:04;32.30;44.70
52245;DHT22;55759;51.586;-1.758;2023-05-07T16:41:29;33.50;42.80
52245;DHT22;55759;51.586;-1.758;2023-05-07T16:43:55;35.00;34.00
52245;DHT22;55759;51.586;-1.758;2023-05-07T16:46:22;35.60;33.30
52245;DHT22;55759;51.586;-1.758;2023-05-07T16:48:47;35.00;31.50
52245;DHT22;55759;51.586;-1.758;2023-05-07T16:51:13;35.10;35.70
52245;DHT22;55759;51.586;-1.758;2023-05-07T16:53:38;35.70;28.90